createdAt,value
2022-12-23T00:01:42.166Z,1.42
2022-12-23T00:04:10.565Z,1.70
2022-12-23T00:06:38.962Z,1.40
2022-12-23T00:09:07.350Z,2.00
2022-12-23T00:11:37.055Z,1.95
2022-12-23T00:14:22.864Z,2.25
2022-12-23T00:16:51.775Z,2.15
2022-12-23T00:19:20.425Z,2.70
2022-12-23T00:21:49.276Z,2.85
2022-12-23T00:24:17.662Z,3.17
2022-12-23T00:26:47.462Z,3.08
2022-12-23T00:29:16.041Z,2.95
2022-12-23T00:31:44.556Z,3.60
2022-12-23T00:34:13.877Z,3.95
2022-12-23T00:36:42.242Z,3.20
2022-12-23T00:39:30.413Z,3.10
2022-12-23T00:42:17.473Z,3.40
2022-12-23T00:44:45.824Z,3.28
2022-12-23T00:47:36.040Z,3.95
2022-12-23T00:50:03.796Z,3.70
2022-12-23T00:52:32.140Z,3.78
2022-12-23T00:55:00.594Z,4.20
2022-12-23T00:57:30.227Z,4.70
2022-12-23T00:59:58.606Z,4.85
2022-12-23T01:02:44.607Z,4.95
2022-12-23T01:07:58.466Z,4.15
2022-12-23T01:10:26.851Z,4.65
2022-12-23T01:12:56.605Z,4.70
2022-12-23T01:15:25.148Z,3.97
2022-12-23T01:17:53.547Z,4.60
2022-12-23T01:20:22.056Z,4.90
2022-12-23T01:22:50.415Z,5.10
2022-12-23T01:25:19.074Z,4.07
2022-12-23T01:27:47.390Z,4.30
2022-12-23T01:30:17.302Z,4.78
2022-12-23T01:32:45.691Z,4.75
2022-12-23T01:35:14.489Z,4.32
2022-12-23T01:37:42.905Z,4.35
2022-12-23T01:40:11.830Z,4.15
2022-12-23T01:42:45.250Z,4.30
2022-12-23T01:45:20.861Z,3.90
2022-12-23T01:50:23.545Z,4.53
2022-12-23T01:53:03.093Z,4.10
2022-12-23T01:55:39.658Z,4.65
2022-12-23T01:58:12.864Z,3.33
2022-12-23T02:01:01.363Z,4.00
2022-12-23T02:03:44.180Z,3.58
2022-12-23T02:06:35.578Z,3.85
2022-12-23T02:09:18.476Z,2.70
2022-12-23T02:12:28.034Z,2.80
2022-12-23T02:15:51.195Z,2.20
2022-12-23T02:18:47.798Z,2.42
2022-12-23T02:21:37.356Z,3.13
2022-12-23T02:24:37.576Z,2.40
2022-12-23T02:27:12.715Z,2.10
2022-12-23T02:30:16.072Z,2.08
2022-12-23T02:32:56.870Z,2.80
2022-12-23T02:35:31.387Z,2.97
2022-12-23T02:38:09.144Z,2.97
2022-12-23T02:40:43.795Z,2.80
2022-12-23T02:43:18.318Z,2.90
2022-12-23T02:45:52.186Z,3.13
2022-12-23T02:48:28.630Z,2.97
2022-12-23T02:50:58.690Z,2.53
2022-12-23T02:53:31.462Z,3.05
2022-12-23T02:56:01.915Z,3.25
2022-12-23T02:58:35.000Z,3.13
2022-12-23T03:01:07.052Z,2.50
2022-12-23T03:03:38.736Z,2.10
2022-12-23T03:06:18.495Z,2.22
2022-12-23T03:08:47.162Z,2.60
2022-12-23T03:11:17.790Z,2.67
2022-12-23T03:14:07.011Z,3.00
2022-12-23T03:16:45.638Z,2.97
2022-12-23T03:19:24.591Z,2.92
2022-12-23T03:22:00.961Z,3.30
2022-12-23T03:24:36.296Z,3.25
2022-12-23T03:27:11.322Z,3.13
2022-12-23T03:29:46.575Z,3.33
2022-12-23T03:32:17.410Z,3.50
2022-12-23T03:34:51.181Z,2.60
2022-12-23T03:37:23.586Z,2.60
2022-12-23T03:39:58.782Z,2.92
2022-12-23T03:42:30.384Z,2.60
2022-12-23T03:47:54.871Z,2.60
2022-12-23T03:50:26.570Z,2.70
2022-12-23T03:52:59.755Z,2.30
2022-12-23T03:55:33.452Z,2.50
2022-12-23T03:58:09.072Z,1.92
2022-12-23T04:03:18.631Z,2.25
2022-12-23T04:05:54.507Z,1.67
2022-12-23T04:08:28.302Z,2.53
2022-12-23T04:10:58.758Z,1.70
2022-12-23T04:13:28.314Z,1.77
2022-12-23T04:15:59.380Z,2.00
2022-12-23T04:18:29.086Z,1.65
2022-12-23T04:20:59.413Z,2.33
2022-12-23T04:23:28.096Z,1.83
2022-12-23T04:25:56.794Z,1.95
2022-12-23T04:28:25.513Z,1.83
2022-12-23T04:30:54.196Z,1.75
2022-12-23T04:33:22.910Z,1.67
2022-12-23T04:35:51.625Z,1.75
2022-12-23T04:38:22.046Z,1.98
2022-12-23T04:40:50.597Z,2.17
2022-12-23T04:43:19.327Z,1.98
2022-12-23T04:45:51.520Z,2.17
2022-12-23T04:48:20.507Z,2.47
2022-12-23T04:50:49.034Z,2.80
2022-12-23T04:53:17.530Z,2.85
2022-12-23T04:55:52.270Z,2.65
2022-12-23T04:58:22.054Z,3.20
2022-12-23T05:00:50.962Z,2.72
2022-12-23T05:03:22.589Z,3.03
2022-12-23T05:05:51.298Z,2.80
2022-12-23T05:08:19.833Z,3.28
2022-12-23T05:10:49.822Z,4.05
2022-12-23T05:13:18.507Z,3.80
2022-12-23T05:15:51.049Z,3.08
2022-12-23T05:18:20.151Z,3.25
2022-12-23T05:20:49.605Z,3.35
2022-12-23T05:23:18.172Z,3.80
2022-12-23T05:25:53.661Z,3.60
2022-12-23T05:28:23.698Z,3.65
2022-12-23T05:30:59.043Z,3.42
2022-12-23T05:33:28.049Z,2.88
2022-12-23T05:35:57.169Z,2.85
2022-12-23T05:38:26.212Z,3.75
2022-12-23T05:40:56.067Z,2.55
2022-12-23T05:43:25.234Z,3.00
2022-12-23T05:45:53.845Z,3.25
2022-12-23T05:48:22.725Z,3.20
2022-12-23T05:50:51.739Z,3.70
2022-12-23T05:53:21.320Z,3.95
2022-12-23T05:55:49.716Z,3.58
2022-12-23T05:58:19.527Z,2.90
2022-12-23T06:00:47.968Z,3.10
2022-12-23T06:03:16.532Z,3.03
2022-12-23T06:05:45.044Z,2.85
2022-12-23T06:08:13.392Z,3.15
2022-12-23T06:10:41.840Z,3.63
2022-12-23T06:13:10.358Z,3.67
2022-12-23T06:15:40.238Z,3.05
2022-12-23T06:18:08.704Z,2.90
2022-12-23T06:20:37.373Z,2.90
2022-12-23T06:23:05.828Z,3.08
2022-12-23T06:25:34.340Z,2.15
2022-12-23T06:28:02.730Z,2.50
2022-12-23T06:30:31.171Z,2.10
2022-12-23T06:33:00.930Z,2.30
2022-12-23T06:35:29.440Z,2.65
2022-12-23T06:37:57.894Z,2.90
2022-12-23T06:40:28.339Z,3.22
2022-12-23T06:42:56.807Z,3.30
2022-12-23T06:45:25.365Z,3.45
2022-12-23T06:47:53.838Z,3.97
2022-12-23T06:50:23.658Z,3.60
2022-12-23T06:52:52.024Z,3.80
2022-12-23T06:55:20.491Z,4.25
2022-12-23T06:57:48.858Z,3.80
2022-12-23T07:00:18.016Z,3.88
2022-12-23T07:02:46.527Z,3.40
2022-12-23T07:05:15.237Z,3.63
2022-12-23T07:07:44.946Z,2.88
2022-12-23T07:10:13.324Z,3.67
2022-12-23T07:12:46.001Z,2.45
2022-12-23T07:15:17.697Z,2.00
2022-12-23T07:17:46.005Z,2.45
2022-12-23T07:20:14.723Z,2.67
2022-12-23T07:22:42.993Z,2.85
2022-12-23T07:25:13.565Z,2.50
2022-12-23T07:27:41.894Z,2.50
2022-12-23T07:30:11.141Z,2.63
2022-12-23T07:32:39.529Z,2.58
2022-12-23T07:35:08.313Z,2.78
2022-12-23T07:37:36.644Z,3.53
2022-12-23T07:40:08.729Z,3.10
2022-12-23T07:42:47.086Z,2.78
2022-12-23T07:45:15.765Z,2.67
2022-12-23T07:47:44.385Z,2.45
2022-12-23T07:50:13.645Z,2.10
2022-12-23T07:52:41.999Z,2.05
2022-12-23T07:55:10.734Z,2.35
2022-12-23T07:57:40.688Z,1.90
2022-12-23T08:00:15.044Z,1.83
2022-12-23T08:02:43.944Z,1.80
2022-12-23T08:05:14.116Z,1.55
2022-12-23T08:07:44.921Z,1.60
2022-12-23T08:10:13.624Z,1.73
2022-12-23T08:12:43.374Z,1.40
2022-12-23T08:15:12.044Z,1.58
2022-12-23T08:17:40.367Z,1.65
2022-12-23T08:20:09.793Z,1.35
2022-12-23T08:22:38.330Z,1.42
2022-12-23T08:25:07.716Z,1.48
2022-12-23T08:27:36.625Z,1.35
2022-12-23T08:30:08.001Z,1.50
2022-12-23T08:32:36.563Z,1.42
2022-12-23T08:35:05.457Z,2.10
2022-12-23T08:37:33.845Z,1.70
2022-12-23T08:40:02.191Z,1.80
2022-12-23T08:42:30.566Z,1.70
2022-12-23T08:44:58.947Z,1.63
2022-12-23T08:47:28.656Z,2.00
2022-12-23T08:49:57.004Z,1.77
2022-12-23T08:52:25.404Z,1.80
2022-12-23T08:54:54.293Z,1.67
2022-12-23T08:57:22.628Z,1.90
2022-12-23T08:59:51.749Z,1.98
2022-12-23T09:02:22.445Z,2.22
2022-12-23T09:04:52.438Z,1.60
2022-12-23T09:07:20.789Z,1.60
2022-12-23T09:09:49.245Z,1.33
2022-12-23T09:12:17.592Z,1.58
2022-12-23T09:14:47.564Z,1.50
2022-12-23T09:17:17.574Z,1.33
2022-12-23T09:19:52.425Z,1.05
2022-12-23T09:22:22.787Z,1.30
2022-12-23T09:24:51.119Z,1.27
2022-12-23T09:27:19.657Z,0.80
2022-12-23T09:29:58.034Z,1.00
2022-12-23T09:32:26.481Z,1.10
2022-12-23T09:34:54.937Z,1.00
2022-12-23T09:37:24.627Z,0.90
2022-12-23T09:40:20.847Z,1.33
2022-12-23T09:43:02.565Z,2.50
2022-12-23T09:46:05.352Z,1.05
2022-12-23T09:48:37.703Z,0.82
2022-12-23T09:51:22.721Z,1.30
2022-12-23T09:54:01.651Z,0.80
2022-12-23T09:56:38.906Z,0.80
2022-12-23T09:59:34.328Z,0.73
2022-12-23T10:02:19.757Z,0.88
2022-12-23T10:05:04.132Z,0.80
2022-12-23T10:07:38.239Z,0.60
2022-12-23T10:13:26.442Z,1.10
2022-12-23T10:16:26.977Z,1.00
2022-12-23T10:19:00.918Z,0.65
2022-12-23T10:21:42.265Z,1.00
2022-12-23T10:24:17.798Z,0.90
2022-12-23T10:26:53.857Z,0.80
2022-12-23T10:29:32.260Z,0.75
2022-12-23T10:32:16.245Z,0.70
2022-12-23T10:34:53.445Z,1.00
2022-12-23T10:37:43.294Z,0.73
2022-12-23T10:40:21.700Z,1.15
2022-12-23T10:43:08.158Z,1.10
2022-12-23T10:45:48.012Z,1.00
2022-12-23T10:48:28.853Z,0.90
2022-12-23T10:51:09.405Z,1.10
2022-12-23T10:53:42.916Z,0.90
2022-12-23T10:56:11.954Z,1.10
2022-12-23T10:59:00.809Z,0.80
2022-12-23T11:01:31.194Z,1.00
2022-12-23T11:04:07.444Z,0.80
2022-12-23T11:07:10.682Z,0.90
2022-12-23T11:09:41.693Z,1.10
2022-12-23T11:12:16.298Z,0.80
2022-12-23T11:14:53.682Z,0.60
2022-12-23T11:17:23.947Z,0.50
2022-12-23T11:20:13.919Z,0.45
2022-12-23T11:22:48.842Z,0.40
2022-12-23T11:25:32.532Z,0.50
2022-12-23T11:28:16.118Z,0.60
2022-12-23T11:30:56.973Z,0.60
2022-12-23T11:33:28.940Z,0.63
2022-12-23T11:36:15.776Z,0.60
2022-12-23T11:38:51.667Z,0.57
2022-12-23T11:41:23.279Z,0.70
2022-12-23T11:44:05.189Z,0.40
2022-12-23T11:46:36.243Z,1.23
2022-12-23T11:49:07.916Z,1.17
2022-12-23T11:51:36.292Z,1.20
2022-12-23T11:54:17.191Z,0.90
2022-12-23T11:56:45.687Z,0.80
2022-12-23T11:59:28.203Z,0.80
2022-12-23T12:02:04.635Z,0.40
2022-12-23T12:04:36.636Z,0.40
2022-12-23T12:07:07.760Z,0.50
2022-12-23T12:09:46.529Z,0.50
2022-12-23T12:12:20.992Z,0.43
2022-12-23T12:14:52.494Z,0.35
2022-12-23T12:17:27.608Z,0.40
2022-12-23T12:20:05.807Z,0.40
2022-12-23T12:22:40.111Z,0.50
2022-12-23T12:25:19.394Z,0.40
2022-12-23T12:28:00.985Z,0.45
2022-12-23T12:30:35.091Z,0.40
2022-12-23T12:33:15.559Z,0.40
2022-12-23T12:35:53.636Z,0.40
2022-12-23T12:38:26.793Z,0.30
2022-12-23T12:41:01.633Z,0.57
2022-12-23T12:43:49.607Z,0.50
2022-12-23T12:46:32.112Z,0.30
2022-12-23T12:49:22.652Z,0.40
2022-12-23T12:51:58.011Z,0.32
2022-12-23T12:54:31.634Z,0.40
2022-12-23T12:57:19.632Z,0.60
2022-12-23T12:59:51.427Z,0.40
2022-12-23T13:02:59.607Z,0.60
2022-12-23T13:05:51.809Z,0.40
2022-12-23T13:08:50.948Z,0.40
2022-12-23T13:11:28.756Z,0.40
2022-12-23T13:14:25.787Z,0.55
2022-12-23T13:17:05.929Z,0.40
2022-12-23T13:19:50.933Z,0.40
2022-12-23T13:22:31.478Z,0.50
2022-12-23T13:25:06.895Z,0.50
2022-12-23T13:27:58.549Z,0.70
2022-12-23T13:30:32.309Z,0.70
2022-12-23T13:33:26.899Z,0.80
2022-12-23T13:36:09.091Z,0.80
2022-12-23T13:39:04.915Z,0.80
2022-12-23T13:41:45.031Z,0.90
2022-12-23T13:44:15.062Z,0.80
2022-12-23T13:47:00.443Z,0.70
2022-12-23T13:49:51.741Z,0.70
2022-12-23T13:52:45.289Z,0.77
2022-12-23T13:55:25.994Z,0.60
2022-12-23T13:58:02.414Z,0.90
2022-12-23T14:00:32.822Z,0.65
2022-12-23T14:03:19.994Z,0.80
2022-12-23T14:05:58.016Z,0.70
2022-12-23T14:08:41.129Z,0.80
2022-12-23T14:11:21.147Z,0.80
2022-12-23T14:13:56.140Z,0.70
2022-12-23T14:16:50.330Z,0.80
2022-12-23T14:19:36.920Z,0.88
2022-12-23T14:22:21.180Z,0.90
2022-12-23T14:25:17.129Z,0.70
2022-12-23T14:27:59.070Z,0.90
2022-12-23T14:30:46.545Z,0.73
2022-12-23T14:33:24.972Z,0.68
2022-12-23T14:35:57.688Z,1.10
2022-12-23T14:38:42.476Z,0.82
2022-12-23T14:41:24.543Z,0.80
2022-12-23T14:43:57.344Z,0.90
2022-12-23T14:46:59.479Z,0.90
2022-12-23T14:49:44.370Z,1.05
2022-12-23T14:52:44.638Z,0.80
2022-12-23T14:55:46.306Z,0.80
2022-12-23T14:58:27.713Z,0.80
2022-12-23T15:01:10.023Z,0.90
2022-12-23T15:03:44.299Z,0.85
2022-12-23T15:06:19.044Z,0.93
2022-12-23T15:08:56.467Z,1.10
2022-12-23T15:11:29.275Z,1.20
2022-12-23T15:14:01.212Z,1.40
2022-12-23T15:16:37.585Z,1.23
2022-12-23T15:19:18.956Z,1.20
2022-12-23T15:21:53.734Z,1.38
2022-12-23T15:24:27.348Z,1.35
2022-12-23T15:27:25.360Z,1.10
2022-12-23T15:29:48.482Z,1.10
2022-12-23T15:32:19.413Z,0.90
2022-12-23T15:34:49.151Z,0.70
2022-12-23T15:37:23.262Z,0.90
2022-12-23T15:40:00.297Z,0.77
2022-12-23T15:42:35.356Z,0.82
2022-12-23T15:49:20.186Z,1.02
2022-12-23T15:52:07.761Z,0.88
2022-12-23T15:54:43.932Z,0.80
2022-12-23T15:57:18.827Z,0.90
2022-12-23T15:59:47.333Z,0.90
2022-12-23T16:05:10.988Z,1.02
2022-12-23T16:07:40.771Z,0.90
2022-12-23T16:10:16.419Z,1.13
2022-12-23T16:12:45.349Z,1.20
2022-12-23T16:15:21.938Z,1.20
2022-12-23T16:17:50.354Z,1.10
2022-12-23T16:20:27.555Z,1.00
2022-12-23T16:22:58.546Z,0.93
2022-12-23T16:25:32.798Z,1.27
2022-12-23T16:28:05.160Z,0.93
2022-12-23T16:30:38.283Z,1.30
2022-12-23T16:33:08.611Z,1.05
2022-12-23T16:35:44.531Z,1.23
2022-12-23T16:38:20.025Z,1.17
2022-12-23T16:40:52.901Z,0.90
2022-12-23T16:43:39.059Z,1.23
2022-12-23T16:46:20.360Z,1.20
2022-12-23T16:48:55.514Z,1.90
2022-12-23T16:51:30.748Z,1.23
2022-12-23T16:54:07.676Z,1.25
2022-12-23T16:56:39.002Z,1.30
2022-12-23T16:59:16.705Z,1.67
2022-12-23T17:01:50.215Z,1.60
2022-12-23T17:04:46.226Z,1.48
2022-12-23T17:07:15.175Z,1.70
2022-12-23T17:09:46.224Z,1.00
2022-12-23T17:12:26.348Z,1.60
2022-12-23T17:14:55.032Z,1.92
2022-12-23T17:17:25.850Z,1.65
2022-12-23T17:19:58.599Z,2.10
2022-12-23T17:22:34.135Z,1.50
2022-12-23T17:25:02.841Z,1.45
2022-12-23T17:27:31.286Z,1.35
2022-12-23T17:29:59.635Z,1.92
2022-12-23T17:32:28.357Z,1.48
2022-12-23T17:34:56.901Z,1.60
2022-12-23T17:37:25.344Z,1.98
2022-12-23T17:39:55.057Z,1.83
2022-12-23T17:42:26.135Z,1.25
2022-12-23T17:44:54.724Z,1.45
2022-12-23T17:47:23.611Z,1.70
2022-12-23T17:49:52.125Z,2.00
2022-12-23T17:52:23.498Z,1.70
2022-12-23T17:54:52.591Z,1.80
2022-12-23T17:57:24.849Z,1.67
2022-12-23T17:59:56.756Z,1.55
2022-12-23T18:02:27.271Z,2.10
2022-12-23T18:04:55.749Z,1.65
2022-12-23T18:07:24.079Z,1.70
2022-12-23T18:09:52.713Z,1.73
2022-12-23T18:12:31.667Z,1.67
2022-12-23T18:15:00.676Z,1.73
2022-12-23T18:17:29.331Z,1.55
2022-12-23T18:19:57.655Z,1.73
2022-12-23T18:22:27.598Z,2.30
2022-12-23T18:24:59.364Z,1.63
2022-12-23T18:27:29.412Z,1.98
2022-12-23T18:29:57.777Z,1.58
2022-12-23T18:32:28.554Z,1.95
2022-12-23T18:34:57.326Z,2.17
2022-12-23T18:37:26.103Z,1.77
2022-12-23T18:39:54.527Z,2.25
2022-12-23T18:42:23.098Z,1.83
2022-12-23T18:44:52.851Z,1.88
2022-12-23T18:47:21.309Z,2.10
2022-12-23T18:49:49.681Z,1.80
2022-12-23T18:52:18.097Z,2.38
2022-12-23T18:54:46.658Z,2.75
2022-12-23T18:57:15.006Z,1.70
2022-12-23T18:59:43.465Z,2.22
2022-12-23T19:02:15.137Z,1.50
2022-12-23T19:04:43.706Z,1.70
2022-12-23T19:07:12.484Z,2.00
2022-12-23T19:09:40.960Z,1.67
2022-12-23T19:12:09.284Z,1.58
2022-12-23T19:14:39.722Z,2.10
2022-12-23T19:17:08.704Z,1.77
2022-12-23T19:19:38.440Z,2.40
2022-12-23T19:22:06.849Z,1.88
2022-12-23T19:24:35.296Z,1.60
2022-12-23T19:27:03.727Z,1.98
2022-12-23T19:29:32.063Z,2.05
2022-12-23T19:32:00.420Z,2.70
2022-12-23T19:34:28.750Z,2.08
2022-12-23T19:36:58.423Z,2.13
2022-12-23T19:39:26.947Z,1.63
2022-12-23T19:41:55.380Z,2.30
2022-12-23T19:44:23.732Z,2.20
2022-12-23T19:46:52.164Z,2.75
2022-12-23T19:49:20.695Z,1.92
2022-12-23T19:51:49.535Z,2.05
2022-12-23T19:54:20.283Z,1.90
2022-12-23T19:56:51.175Z,1.55
2022-12-23T19:59:19.866Z,1.88
2022-12-23T20:01:48.428Z,1.58
2022-12-23T20:04:17.233Z,1.60
2022-12-23T20:06:45.634Z,2.10
2022-12-23T20:09:14.603Z,1.20
2022-12-23T20:11:46.251Z,1.50
2022-12-23T20:14:16.435Z,1.73
2022-12-23T20:16:45.048Z,1.88
2022-12-23T20:19:13.431Z,2.60
2022-12-23T20:21:41.826Z,1.73
2022-12-23T20:24:10.495Z,1.33
2022-12-23T20:26:38.940Z,1.70
2022-12-23T20:29:09.396Z,1.77
2022-12-23T20:31:39.272Z,1.95
2022-12-23T20:34:09.322Z,2.10
2022-12-23T20:36:38.467Z,1.70
2022-12-23T20:39:07.118Z,1.50
2022-12-23T20:41:35.978Z,1.50
2022-12-23T20:46:54.736Z,1.90
2022-12-23T20:49:23.317Z,1.52
2022-12-23T20:51:51.646Z,1.98
2022-12-23T20:54:24.906Z,2.72
2022-12-23T20:56:56.492Z,1.55
2022-12-23T20:59:24.912Z,1.90
2022-12-23T21:01:54.958Z,1.40
2022-12-23T21:04:23.512Z,1.25
2022-12-23T21:06:51.851Z,1.73
2022-12-23T21:09:20.392Z,1.15
2022-12-23T21:11:48.917Z,1.30
2022-12-23T21:14:17.289Z,1.40
2022-12-23T21:16:46.467Z,1.60
2022-12-23T21:19:19.579Z,1.70
2022-12-23T21:21:49.522Z,1.60
2022-12-23T21:24:18.950Z,1.73
2022-12-23T21:26:55.707Z,1.67
2022-12-23T21:29:25.462Z,1.38
2022-12-23T21:31:54.893Z,1.25
2022-12-23T21:34:24.966Z,1.52
2022-12-23T21:36:53.572Z,1.77
2022-12-23T21:39:22.097Z,1.50
2022-12-23T21:41:51.321Z,1.45
2022-12-23T21:44:19.833Z,1.33
2022-12-23T21:46:50.953Z,1.88
2022-12-23T21:49:21.050Z,2.30
2022-12-23T21:51:50.972Z,1.55
2022-12-23T21:54:19.480Z,2.83
2022-12-23T21:56:47.756Z,2.00
2022-12-23T21:59:16.148Z,1.58
2022-12-23T22:01:44.878Z,1.33
2022-12-23T22:04:13.557Z,1.95
2022-12-23T22:06:44.498Z,2.47
2022-12-23T22:09:16.320Z,1.25
2022-12-23T22:11:44.943Z,1.83
2022-12-23T22:14:15.813Z,1.55
2022-12-23T22:16:44.525Z,1.60
2022-12-23T22:19:13.386Z,1.90
2022-12-23T22:21:42.510Z,1.55
2022-12-23T22:24:11.657Z,1.38
2022-12-23T22:26:41.945Z,1.85
2022-12-23T22:29:12.480Z,2.10
2022-12-23T22:31:44.439Z,2.20
2022-12-23T22:34:15.047Z,1.58
2022-12-23T22:36:43.829Z,1.65
2022-12-23T22:39:20.119Z,1.60
2022-12-23T22:41:52.126Z,1.55
2022-12-23T22:44:21.400Z,1.70
2022-12-23T22:46:49.962Z,2.42
2022-12-23T22:49:18.597Z,1.70
2022-12-23T22:51:47.190Z,1.70
2022-12-23T22:54:15.792Z,2.15
2022-12-23T22:56:46.545Z,2.00
2022-12-23T22:59:24.298Z,2.20
2022-12-23T23:01:53.904Z,1.65
2022-12-23T23:04:22.368Z,1.85
2022-12-23T23:06:50.985Z,2.15
2022-12-23T23:09:21.614Z,1.95
2022-12-23T23:11:50.289Z,1.60
2022-12-23T23:14:19.557Z,2.03
2022-12-23T23:16:49.543Z,2.42
2022-12-23T23:19:20.267Z,1.70
2022-12-23T23:21:49.038Z,2.50
2022-12-23T23:24:17.477Z,2.08
2022-12-23T23:26:45.893Z,1.95
2022-12-23T23:29:14.384Z,2.35
2022-12-23T23:31:43.858Z,1.83
2022-12-23T23:34:14.489Z,1.60
2022-12-23T23:36:43.137Z,1.95
2022-12-23T23:39:12.854Z,1.85
2022-12-23T23:41:41.970Z,2.50
2022-12-23T23:44:10.452Z,2.50
2022-12-23T23:46:39.146Z,1.90
2022-12-23T23:49:07.474Z,1.90
2022-12-23T23:51:37.479Z,2.17
2022-12-23T23:54:07.319Z,1.90
2022-12-23T23:56:39.222Z,1.60
2022-12-23T23:59:08.542Z,1.90
